Time;durP1;ratioP1;P1;durP2;ratioP2;P2;SDS_P1;SDS_P2;PMS_P1;PMS_P2;Temp;Humidity;BMP_temperature;BMP_pressure;BME280_temperature;BME280_humidity;BME280_pressure;Samples;Min_cycle;Max_cycle;Signal;HPM_P1;HPM_P2
2022/06/18 00:02:21;;;;;;;6.30;2.03;;;19.70;99.90;;;;;;5010640;28;20210;-76
2022/06/18 00:05:06;;;;;;;2.65;1.83;;;19.70;99.90;;;;;;5013440;28;20183;-76
2022/06/18 00:07:55;;;;;;;1.58;1.48;;;19.70;99.90;;;;;;5025544;28;20653;-77
2022/06/18 00:10:39;;;;;;;2.30;1.70;;;19.70;99.90;;;;;;5025264;28;20218;-76
2022/06/18 00:13:40;;;;;;;3.80;2.03;;;19.60;99.90;;;;;;5014269;28;20208;-76
2022/06/18 00:16:24;;;;;;;4.10;2.00;;;19.60;99.90;;;;;;5024210;28;20419;-76
2022/06/18 00:19:08;;;;;;;2.35;1.73;;;19.60;99.90;;;;;;5013076;28;20203;-76
2022/06/18 00:21:53;;;;;;;3.55;1.88;;;19.60;99.90;;;;;;5022686;28;20216;-76
2022/06/18 00:24:37;;;;;;;3.40;2.35;;;19.50;99.90;;;;;;5003573;28;20331;-76
2022/06/18 00:27:21;;;;;;;3.70;2.00;;;19.50;99.90;;;;;;5014578;28;20323;-76
2022/06/18 00:30:06;;;;;;;2.08;1.88;;;19.50;99.90;;;;;;5010658;28;20195;-76
2022/06/18 00:32:51;;;;;;;2.47;1.90;;;19.50;99.90;;;;;;5008559;28;20250;-76
2022/06/18 00:35:35;;;;;;;2.63;2.17;;;19.40;99.90;;;;;;5009573;28;20232;-76
2022/06/18 00:38:28;;;;;;;3.42;2.40;;;19.40;99.90;;;;;;5020600;28;20192;-76
2022/06/18 00:41:18;;;;;;;3.85;2.15;;;19.40;99.90;;;;;;5010658;28;20683;-76
2022/06/18 00:44:07;;;;;;;2.33;2.10;;;19.40;99.90;;;;;;5016907;28;20194;-75
2022/06/18 00:47:10;;;;;;;5.45;2.08;;;19.30;99.90;;;;;;5006570;28;20212;-76
2022/06/18 00:50:15;;;;;;;3.10;2.03;;;19.30;99.90;;;;;;5008913;28;20309;-76
2022/06/18 00:53:07;;;;;;;2.78;2.10;;;19.30;99.90;;;;;;5027604;28;20575;-76
2022/06/18 00:56:04;;;;;;;4.30;2.30;;;19.30;99.90;;;;;;5010114;28;20234;-77
2022/06/18 00:58:55;;;;;;;3.15;2.20;;;19.30;99.90;;;;;;5026065;28;20191;-76
2022/06/18 01:01:44;;;;;;;4.65;2.35;;;19.30;99.90;;;;;;5008240;28;20241;-75
2022/06/18 01:04:31;;;;;;;5.47;2.40;;;19.20;99.90;;;;;;5006873;28;20184;-76
2022/06/18 01:07:33;;;;;;;6.03;2.50;;;19.20;99.90;;;;;;5021908;28;20265;-76
2022/06/18 01:10:22;;;;;;;5.30;2.45;;;19.20;99.90;;;;;;5013571;28;20231;-76
2022/06/18 01:13:11;;;;;;;3.67;2.42;;;19.10;99.90;;;;;;5034404;28;20222;-76
2022/06/18 01:15:56;;;;;;;5.60;2.40;;;19.10;99.90;;;;;;5030036;28;20242;-76
2022/06/18 01:18:40;;;;;;;2.55;2.25;;;19.10;99.90;;;;;;5015339;28;20674;-76
2022/06/18 01:21:49;;;;;;;3.88;2.30;;;19.10;99.90;;;;;;5031831;28;20333;-76
2022/06/18 01:24:39;;;;;;;4.53;2.22;;;19.10;99.90;;;;;;5014119;28;20266;-75
2022/06/18 01:27:24;;;;;;;2.85;1.92;;;19.00;99.90;;;;;;5030268;28;20180;-76
2022/06/18 01:30:14;;;;;;;2.30;2.10;;;19.00;99.90;;;;;;5009341;28;20200;-75
2022/06/18 01:32:58;;;;;;;7.25;2.38;;;19.00;99.90;;;;;;5034130;28;20211;-76
2022/06/18 01:35:53;;;;;;;4.95;2.35;;;19.00;99.90;;;;;;5029940;28;20230;-75
2022/06/18 01:38:43;;;;;;;6.53;2.50;;;19.00;99.90;;;;;;5027094;28;20207;-75
2022/06/18 01:41:50;;;;;;;2.90;2.40;;;18.90;99.90;;;;;;5027220;28;20226;-75
2022/06/18 01:44:38;;;;;;;3.13;2.55;;;18.90;99.90;;;;;;5010993;28;20191;-76
2022/06/18 01:47:27;;;;;;;7.88;2.78;;;18.90;99.90;;;;;;5006779;28;20234;-75
2022/06/18 01:50:25;;;;;;;6.03;2.17;;;18.90;99.90;;;;;;5024552;28;20231;-76
2022/06/18 01:53:15;;;;;;;5.97;2.72;;;18.80;99.90;;;;;;5023647;28;20226;-76
2022/06/18 01:56:23;;;;;;;5.43;2.40;;;18.80;99.90;;;;;;5013045;28;20203;-76
2022/06/18 01:59:19;;;;;;;8.38;2.72;;;18.80;99.90;;;;;;5014376;28;20751;-76
2022/06/18 02:02:04;;;;;;;9.98;2.67;;;18.80;99.90;;;;;;5022595;28;20214;-75
2022/06/18 02:04:48;;;;;;;3.10;2.42;;;18.70;99.90;;;;;;5021011;28;20276;-75
2022/06/18 02:07:33;;;;;;;2.63;2.17;;;18.70;99.90;;;;;;5012227;28;20276;-75
2022/06/18 02:10:25;;;;;;;6.65;2.75;;;18.60;99.90;;;;;;5015901;28;20176;-75
2022/06/18 02:13:11;;;;;;;2.83;2.53;;;18.60;99.90;;;;;;5019218;28;20203;-75
2022/06/18 02:15:58;;;;;;;3.65;2.72;;;18.50;99.90;;;;;;5011420;28;20271;-76
2022/06/18 02:18:45;;;;;;;6.18;3.50;;;18.50;99.90;;;;;;5014327;28;20203;-75
2022/06/18 02:21:34;;;;;;;5.13;2.60;;;18.50;99.90;;;;;;5017437;28;20226;-75
2022/06/18 02:24:19;;;;;;;2.77;2.40;;;18.40;99.90;;;;;;5027577;28;20219;-75
2022/06/18 02:27:03;;;;;;;6.40;3.05;;;18.40;99.90;;;;;;5031190;28;20191;-75
2022/06/18 02:29:47;;;;;;;4.93;3.00;;;18.40;99.90;;;;;;5014022;28;20199;-76
2022/06/18 02:32:38;;;;;;;7.05;2.92;;;18.30;99.90;;;;;;5015155;28;20655;-76
2022/06/18 02:35:23;;;;;;;7.07;3.05;;;18.30;99.90;;;;;;5012602;28;20180;-76
2022/06/18 02:38:19;;;;;;;4.95;2.90;;;18.20;99.90;;;;;;5016721;28;20200;-75
2022/06/18 02:41:03;;;;;;;8.40;2.75;;;18.20;99.90;;;;;;5015504;28;20561;-75
2022/06/18 02:43:47;;;;;;;4.30;3.03;;;18.20;99.90;;;;;;5010277;28;20204;-75
2022/06/18 02:46:32;;;;;;;5.03;3.10;;;18.20;99.90;;;;;;5014269;28;20188;-76
2022/06/18 02:49:17;;;;;;;4.68;3.25;;;18.10;99.90;;;;;;5005613;28;20187;-77
2022/06/18 02:52:04;;;;;;;5.38;2.95;;;18.10;99.90;;;;;;5018760;28;20235;-77
2022/06/18 02:54:48;;;;;;;6.45;3.25;;;18.10;99.90;;;;;;5009559;28;20230;-77
2022/06/18 02:57:32;;;;;;;4.63;3.42;;;18.10;99.90;;;;;;5013541;28;20338;-76
2022/06/18 03:00:17;;;;;;;4.65;3.22;;;18.10;99.90;;;;;;5006447;28;20196;-76
2022/06/18 03:03:01;;;;;;;5.87;3.00;;;18.10;99.90;;;;;;5009245;28;20246;-76
2022/06/18 03:05:46;;;;;;;4.80;2.50;;;18.10;99.90;;;;;;5024989;28;20616;-76
2022/06/18 03:08:32;;;;;;;4.15;2.70;;;18.10;99.90;;;;;;5020524;28;20275;-76
2022/06/18 03:14:21;;;;;;;8.73;2.80;;;18.10;99.90;;;;;;5033132;28;20245;-76
2022/06/18 03:17:05;;;;;;;6.63;2.63;;;18.10;99.90;;;;;;5018404;28;20179;-76
2022/06/18 03:19:55;;;;;;;3.03;2.72;;;18.10;99.90;;;;;;5015040;28;20204;-77
2022/06/18 03:22:40;;;;;;;3.95;2.92;;;18.10;99.90;;;;;;5007378;28;20192;-76
2022/06/18 03:25:24;;;;;;;4.35;3.10;;;18.10;99.90;;;;;;5022689;28;20183;-76
2022/06/18 03:28:11;;;;;;;3.58;2.65;;;18.10;99.90;;;;;;5017642;28;20211;-76
2022/06/18 03:30:56;;;;;;;4.75;2.75;;;18.00;99.90;;;;;;5018284;28;20702;-76
2022/06/18 03:33:41;;;;;;;7.05;2.80;;;18.10;99.90;;;;;;5031684;28;20261;-76
2022/06/18 03:36:26;;;;;;;4.13;3.13;;;18.00;99.90;;;;;;5013964;28;20234;-77
2022/06/18 03:39:10;;;;;;;4.75;3.17;;;18.10;99.90;;;;;;5009754;28;20179;-77
2022/06/18 03:41:55;;;;;;;4.30;3.13;;;18.10;99.90;;;;;;5013250;28;20215;-77
2022/06/18 03:44:39;;;;;;;4.90;2.92;;;18.10;99.90;;;;;;5022023;28;20257;-76
2022/06/18 03:47:23;;;;;;;3.27;2.67;;;18.10;99.90;;;;;;5022851;28;20191;-76
2022/06/18 03:50:13;;;;;;;7.10;3.38;;;18.20;99.90;;;;;;5016978;28;20238;-76
2022/06/18 03:52:57;;;;;;;5.00;3.00;;;18.20;99.90;;;;;;5011417;28;20242;-76
2022/06/18 03:55:42;;;;;;;4.13;3.00;;;18.30;99.90;;;;;;5020036;28;20195;-77
2022/06/18 03:58:28;;;;;;;4.03;2.90;;;18.30;99.90;;;;;;5032432;28;20207;-76
2022/06/18 04:01:16;;;;;;;7.13;3.03;;;18.40;99.90;;;;;;5007781;28;20211;-77
2022/06/18 04:04:00;;;;;;;4.17;3.20;;;18.40;99.90;;;;;;5011200;28;20224;-77
2022/06/18 04:06:45;;;;;;;4.25;2.92;;;18.50;99.90;;;;;;5024416;28;20180;-76
2022/06/18 04:09:29;;;;;;;3.10;2.80;;;18.50;99.90;;;;;;5006540;28;20191;-77
2022/06/18 04:12:13;;;;;;;4.30;3.47;;;18.60;99.90;;;;;;5019068;28;20214;-75
2022/06/18 04:14:57;;;;;;;5.20;3.50;;;18.70;99.90;;;;;;5016111;28;20265;-76
2022/06/18 04:17:42;;;;;;;7.38;3.20;;;18.70;99.90;;;;;;5024224;28;20267;-76
2022/06/18 04:20:33;;;;;;;6.28;3.45;;;18.80;99.90;;;;;;5005958;28;20207;-76
2022/06/18 04:23:17;;;;;;;3.60;3.28;;;18.80;99.90;;;;;;5002728;28;20191;-76
2022/06/18 04:26:01;;;;;;;6.05;3.67;;;18.90;99.90;;;;;;5030073;28;20239;-77
2022/06/18 04:28:46;;;;;;;3.83;3.25;;;19.00;99.90;;;;;;5012760;28;20230;-77
2022/06/18 04:31:30;;;;;;;5.65;4.10;;;19.10;99.90;;;;;;5014060;28;20258;-76
2022/06/18 04:34:14;;;;;;;4.50;3.13;;;19.10;99.90;;;;;;5006157;28;20219;-76
2022/06/18 04:36:58;;;;;;;4.38;3.28;;;19.20;99.90;;;;;;5010887;28;20192;-77
2022/06/18 04:39:42;;;;;;;5.75;3.60;;;19.30;99.90;;;;;;5005846;28;20187;-76
2022/06/18 04:42:26;;;;;;;6.70;3.70;;;19.40;99.90;;;;;;4999346;28;20601;-76
2022/06/18 04:45:12;;;;;;;4.32;3.30;;;19.40;99.90;;;;;;5017617;28;20215;-76
2022/06/18 04:47:57;;;;;;;5.70;3.53;;;19.50;99.90;;;;;;5024090;28;20227;-76
2022/06/18 04:50:41;;;;;;;6.80;3.90;;;19.50;99.90;;;;;;5028051;28;20286;-76
2022/06/18 04:53:26;;;;;;;5.85;3.58;;;19.60;99.90;;;;;;5025729;28;20219;-77
2022/06/18 04:56:10;;;;;;;4.88;3.33;;;19.70;99.90;;;;;;5018223;28;20233;-76
2022/06/18 04:58:55;;;;;;;5.15;3.17;;;19.70;99.90;;;;;;5027192;28;20233;-76
2022/06/18 05:01:39;;;;;;;4.82;3.80;;;19.80;99.90;;;;;;5011290;28;20236;-76
2022/06/18 05:04:23;;;;;;;4.50;3.95;;;19.90;99.90;;;;;;5009639;28;20244;-76
2022/06/18 05:07:07;;;;;;;7.90;3.90;;;19.90;99.90;;;;;;5007785;28;20658;-77
2022/06/18 05:09:51;;;;;;;4.55;4.03;;;20.00;99.90;;;;;;5005873;28;20187;-77
2022/06/18 05:12:36;;;;;;;4.15;3.78;;;20.10;99.90;;;;;;5010978;28;20219;-76
2022/06/18 05:15:20;;;;;;;7.70;3.90;;;20.10;99.90;;;;;;5013840;28;20195;-76
2022/06/18 05:18:05;;;;;;;9.88;3.22;;;20.20;99.90;;;;;;5008404;28;20231;-76
2022/06/18 05:20:53;;;;;;;5.10;3.67;;;20.30;99.90;;;;;;5011815;28;20259;-76
2022/06/18 05:23:37;;;;;;;6.60;3.78;;;20.40;99.90;;;;;;5008995;28;20219;-76
2022/06/18 05:26:21;;;;;;;5.20;3.47;;;20.40;99.90;;;;;;5017473;28;20683;-76
2022/06/18 05:29:05;;;;;;;4.78;4.20;;;20.50;99.90;;;;;;5012575;28;20662;-75
2022/06/18 05:31:50;;;;;;;7.47;4.18;;;20.60;99.90;;;;;;5007731;28;20230;-76
2022/06/18 05:34:34;;;;;;;6.53;4.20;;;20.60;99.90;;;;;;5002510;28;20223;-76
2022/06/18 05:37:22;;;;;;;5.13;3.75;;;20.80;99.90;;;;;;5025944;28;20183;-76
2022/06/18 05:40:07;;;;;;;5.55;3.95;;;20.80;99.90;;;;;;5000879;28;20375;-76
2022/06/18 05:42:53;;;;;;;7.13;4.10;;;20.90;99.90;;;;;;5010738;28;20199;-76
2022/06/18 05:45:38;;;;;;;6.07;4.38;;;20.90;99.90;;;;;;5011264;28;20196;-76
2022/06/18 05:48:22;;;;;;;7.57;4.45;;;21.00;99.90;;;;;;5013678;28;20187;-76
2022/06/18 05:51:06;;;;;;;5.22;4.30;;;21.10;99.90;;;;;;5019737;28;20294;-76
2022/06/18 05:53:50;;;;;;;7.35;3.63;;;21.10;99.90;;;;;;5004905;28;20211;-76
2022/06/18 05:56:34;;;;;;;8.02;4.85;;;21.30;99.90;;;;;;5007551;28;20241;-76
2022/06/18 05:59:18;;;;;;;5.03;3.97;;;21.30;99.90;;;;;;5015512;28;20322;-76
2022/06/18 06:02:03;;;;;;;6.28;4.53;;;21.40;99.90;;;;;;5009736;28;20350;-76
2022/06/18 06:04:47;;;;;;;8.15;4.20;;;21.50;99.90;;;;;;5011053;28;20196;-76
2022/06/18 06:07:32;;;;;;;6.53;5.10;;;21.50;99.90;;;;;;5010548;28;20195;-76
2022/06/18 06:13:43;;;;;;;9.80;5.25;;;21.70;99.90;;;;;;5015118;28;20219;-76
2022/06/18 06:16:28;;;;;;;6.65;5.07;;;21.80;99.90;;;;;;5019249;28;20191;-76
2022/06/18 06:19:12;;;;;;;7.57;5.28;;;21.80;99.90;;;;;;5006170;28;20243;-76
2022/06/18 06:21:56;;;;;;;9.02;5.40;;;21.90;99.90;;;;;;5007179;28;20265;-76
2022/06/18 06:24:41;;;;;;;10.68;5.38;;;21.90;99.90;;;;;;5005482;28;20199;-77
2022/06/18 06:27:25;;;;;;;7.25;5.13;;;22.00;99.90;;;;;;5027284;28;20274;-76
2022/06/18 06:30:12;;;;;;;10.25;5.47;;;22.10;99.90;;;;;;5012903;28;20199;-76
2022/06/18 06:32:56;;;;;;;8.07;5.45;;;22.10;99.90;;;;;;5027684;28;20223;-76
2022/06/18 06:35:42;;;;;;;16.52;5.85;;;22.20;99.90;;;;;;5016105;28;20243;-75
2022/06/18 06:38:27;;;;;;;8.25;5.75;;;22.30;99.90;;;;;;5008527;28;20199;-76
2022/06/18 06:41:15;;;;;;;7.30;5.30;;;22.40;99.90;;;;;;5015387;28;20223;-77
2022/06/18 06:43:59;;;;;;;9.00;5.53;;;22.50;99.90;;;;;;5029546;28;20215;-77
2022/06/18 06:46:43;;;;;;;8.45;5.47;;;22.50;99.90;;;;;;5009780;28;20268;-77
2022/06/18 06:49:27;;;;;;;9.57;5.70;;;22.60;99.90;;;;;;5024819;28;20246;-79
2022/06/18 06:52:12;;;;;;;11.02;5.95;;;22.60;99.90;;;;;;5011205;28;20238;-78
2022/06/18 06:57:21;;;;;;;6.97;5.20;;;22.70;99.90;;;;;;5024269;28;20261;-78
2022/06/18 06:58:01;;;;;;;7.90;5.63;;;22.70;99.90;;;;;;5029651;28;20245;-78
2022/06/18 07:00:53;;;;;;;11.90;5.85;;;22.80;99.90;;;;;;5017296;28;20253;-78
2022/06/18 07:03:37;;;;;;;14.30;5.65;;;22.90;99.90;;;;;;5017932;28;20689;-78
2022/06/18 07:06:22;;;;;;;8.70;5.75;;;22.90;99.90;;;;;;5016349;28;20199;-78
2022/06/18 07:09:07;;;;;;;6.97;5.30;;;23.00;99.90;;;;;;5007644;28;20200;-78
2022/06/18 07:11:51;;;;;;;8.18;5.38;;;23.10;99.90;;;;;;5015491;28;20238;-78
2022/06/18 07:14:36;;;;;;;14.98;5.82;;;23.10;99.90;;;;;;5013137;28;20218;-78
2022/06/18 07:17:21;;;;;;;10.85;5.25;;;23.20;99.90;;;;;;5023860;28;20187;-78
2022/06/18 07:20:06;;;;;;;9.38;5.50;;;23.30;99.90;;;;;;5013431;28;20207;-78
2022/06/18 07:22:50;;;;;;;7.70;5.88;;;23.40;99.90;;;;;;5012662;28;20662;-78
2022/06/18 07:25:35;;;;;;;11.60;5.85;;;23.40;99.90;;;;;;5027112;28;20188;-78
2022/06/18 07:28:19;;;;;;;10.60;5.80;;;23.50;99.90;;;;;;5030538;28;20210;-78
2022/06/18 07:31:04;;;;;;;9.48;5.20;;;23.60;99.90;;;;;;5011243;28;20585;-77
2022/06/18 07:33:48;;;;;;;10.20;5.45;;;23.60;99.90;;;;;;5024866;28;20689;-78
2022/06/18 07:36:33;;;;;;;8.40;5.63;;;23.70;99.90;;;;;;5011131;28;20251;-78
2022/06/18 07:39:17;;;;;;;10.27;5.75;;;23.80;99.90;;;;;;5007215;28;20269;-78
2022/06/18 07:42:03;;;;;;;11.65;5.78;;;23.90;99.90;;;;;;5026111;28;20261;-77
2022/06/18 07:44:47;;;;;;;11.27;5.70;;;24.00;99.90;;;;;;5015825;28;20246;-76
2022/06/18 07:47:31;;;;;;;11.15;6.05;;;24.00;99.90;;;;;;5016651;28;20190;-75
2022/06/18 07:50:16;;;;;;;14.15;5.70;;;24.10;99.90;;;;;;5009833;28;20658;-77
2022/06/18 07:53:01;;;;;;;14.02;6.10;;;24.10;99.90;;;;;;5024181;28;20730;-79
2022/06/18 07:55:45;;;;;;;13.70;6.28;;;24.30;99.90;;;;;;5007991;28;20184;-76
2022/06/18 07:58:29;;;;;;;12.00;6.30;;;24.30;99.90;;;;;;5004164;28;20196;-76
2022/06/18 08:01:13;;;;;;;9.50;6.25;;;24.30;99.90;;;;;;5009596;28;20207;-77
2022/06/18 08:03:58;;;;;;;10.05;6.28;;;24.30;99.90;;;;;;5010975;28;20330;-76
2022/06/18 08:06:43;;;;;;;11.52;6.13;;;24.40;99.90;;;;;;5011353;28;20672;-76
2022/06/18 08:09:28;;;;;;;8.07;6.57;;;24.50;99.90;;;;;;5011632;28;20191;-76
2022/06/18 08:12:12;;;;;;;10.65;6.70;;;24.50;99.90;;;;;;5008598;28;20219;-76
2022/06/18 08:14:58;;;;;;;11.70;6.63;;;24.50;99.90;;;;;;5009628;28;20191;-76
2022/06/18 08:17:42;;;;;;;10.95;6.78;;;24.60;99.90;;;;;;5018791;28;20283;-76
2022/06/18 08:20:26;;;;;;;12.70;6.72;;;24.60;99.90;;;;;;5029519;28;20210;-77
2022/06/18 08:23:11;;;;;;;14.10;6.78;;;24.70;99.90;;;;;;5011757;28;20183;-77
2022/06/18 08:25:56;;;;;;;13.75;6.38;;;24.80;99.90;;;;;;5013055;28;20203;-76
2022/06/18 08:28:40;;;;;;;15.50;7.45;;;24.80;99.90;;;;;;5026968;28;20194;-76
2022/06/18 08:31:24;;;;;;;11.13;6.60;;;24.90;99.90;;;;;;5006996;28;20251;-76
2022/06/18 08:34:08;;;;;;;13.50;6.93;;;24.90;99.90;;;;;;5004649;28;20266;-77
2022/06/18 08:36:53;;;;;;;10.85;7.10;;;25.00;99.90;;;;;;5012809;28;20628;-77
2022/06/18 08:39:38;;;;;;;15.63;6.32;;;25.10;99.90;;;;;;5022647;28;20230;-77
2022/06/18 08:42:54;;;;;;;14.68;7.03;;;25.10;99.90;;;;;;5009713;28;20230;-77
2022/06/18 08:46:16;;;;;;;11.13;6.47;;;25.20;99.90;;;;;;5012309;28;20245;-77
2022/06/18 08:49:23;;;;;;;8.73;5.72;;;25.30;99.90;;;;;;5011047;28;20199;-76
2022/06/18 08:52:26;;;;;;;9.02;5.78;;;25.40;99.90;;;;;;5020613;28;20203;-75
2022/06/18 08:55:31;;;;;;;12.45;5.97;;;25.40;99.90;;;;;;5017959;28;20207;-76
2022/06/18 08:58:49;;;;;;;10.82;5.35;;;25.50;99.90;;;;;;5022338;28;20191;-76
2022/06/18 09:01:43;;;;;;;7.18;5.93;;;25.50;99.90;;;;;;5012606;28;20320;-76
2022/06/18 09:04:46;;;;;;;8.25;5.05;;;25.60;99.90;;;;;;5018955;28;20283;-76
2022/06/18 09:07:44;;;;;;;12.88;5.57;;;25.50;99.90;;;;;;5010992;28;20237;-76
2022/06/18 09:10:50;;;;;;;8.65;5.20;;;25.60;99.90;;;;;;5021142;28;20662;-76
2022/06/18 09:13:47;;;;;;;8.75;5.20;;;25.70;99.90;;;;;;5008983;28;20239;-76
2022/06/18 09:16:50;;;;;;;15.15;5.95;;;25.70;99.90;;;;;;5010210;28;20278;-76
2022/06/18 09:19:36;;;;;;;10.13;5.53;;;25.70;99.90;;;;;;5021036;28;20187;-76
2022/06/18 09:22:20;;;;;;;7.80;4.50;;;25.70;99.90;;;;;;5007708;28;20207;-76
2022/06/18 09:25:13;;;;;;;12.10;4.85;;;25.70;99.90;;;;;;5008769;28;20187;-76
2022/06/18 09:28:03;;;;;;;9.00;4.53;;;25.80;99.90;;;;;;5010272;28;20272;-76
2022/06/18 09:30:52;;;;;;;10.85;4.15;;;25.90;99.90;;;;;;5020221;28;20242;-76
2022/06/18 09:33:36;;;;;;;8.13;4.15;;;25.90;99.90;;;;;;5014652;28;20412;-76
2022/06/18 09:36:30;;;;;;;9.55;4.70;;;25.90;99.90;;;;;;5024905;28;20644;-76
2022/06/18 09:39:23;;;;;;;10.38;4.75;;;26.00;99.90;;;;;;5021384;28;20199;-75
2022/06/18 09:42:33;;;;;;;9.20;4.90;;;26.00;99.90;;;;;;5020054;28;20207;-75
2022/06/18 09:45:28;;;;;;;11.73;5.05;;;26.10;99.90;;;;;;5012902;28;20203;-76
2022/06/18 09:48:13;;;;;;;10.82;4.50;;;26.10;99.90;;;;;;5026283;28;20272;-76
2022/06/18 09:51:09;;;;;;;16.27;4.57;;;26.20;99.90;;;;;;5014640;28;20238;-76
2022/06/18 09:53:54;;;;;;;7.57;4.15;;;26.20;99.90;;;;;;5023853;28;20207;-76
2022/06/18 09:56:47;;;;;;;12.88;4.28;;;26.20;99.90;;;;;;5025896;28;20242;-77
2022/06/18 09:59:35;;;;;;;10.95;4.00;;;26.30;99.90;;;;;;5012036;28;20195;-75
2022/06/18 10:02:27;;;;;;;12.50;3.40;;;26.30;99.90;;;;;;5012010;28;20239;-75
2022/06/18 10:08:22;;;;;;;9.50;3.80;;;26.40;99.90;;;;;;5026089;28;20250;-75
2022/06/18 10:11:09;;;;;;;18.83;3.78;;;26.50;99.90;;;;;;5024189;28;20243;-75
2022/06/18 10:14:21;;;;;;;7.32;3.70;;;26.50;99.90;;;;;;5020879;28;20270;-75
2022/06/18 10:17:36;;;;;;;9.25;3.90;;;26.60;99.90;;;;;;5005336;28;20191;-76
2022/06/18 10:20:45;;;;;;;7.45;3.75;;;26.70;99.90;;;;;;5025609;28;20180;-76
2022/06/18 10:23:43;;;;;;;11.68;3.78;;;26.80;99.90;;;;;;5030674;28;20199;-76
2022/06/18 10:26:42;;;;;;;14.10;3.60;;;26.90;99.90;;;;;;5009216;28;20225;-76
2022/06/18 10:29:32;;;;;;;10.10;3.88;;;27.00;99.90;;;;;;5019480;28;20187;-76
2022/06/18 10:32:51;;;;;;;9.77;3.85;;;27.00;99.90;;;;;;5006294;28;20234;-76
2022/06/18 10:35:59;;;;;;;7.63;3.78;;;27.10;99.90;;;;;;5006723;28;20207;-76
2022/06/18 10:39:12;;;;;;;10.20;3.85;;;27.00;99.90;;;;;;5007392;28;20722;-75
2022/06/18 10:42:19;;;;;;;9.38;3.53;;;27.10;99.90;;;;;;5018101;28;20215;-75
2022/06/18 10:45:11;;;;;;;9.07;3.00;;;27.10;99.90;;;;;;5015597;28;20187;-76
2022/06/18 10:47:55;;;;;;;9.95;4.05;;;27.10;99.90;;;;;;5021878;28;20198;-75
2022/06/18 10:50:49;;;;;;;9.32;3.92;;;27.20;99.90;;;;;;5023155;28;20592;-76
2022/06/18 10:53:44;;;;;;;7.22;3.33;;;27.20;99.90;;;;;;5014593;28;20219;-76
2022/06/18 10:56:31;;;;;;;8.50;3.45;;;27.20;99.90;;;;;;5013108;28;20264;-76
2022/06/18 10:59:15;;;;;;;9.70;3.25;;;27.20;99.90;;;;;;5030310;28;20273;-76
2022/06/18 11:02:09;;;;;;;10.65;3.03;;;27.30;99.90;;;;;;5014963;28;20304;-76
2022/06/18 11:04:58;;;;;;;6.95;2.95;;;27.30;99.90;;;;;;5004194;28;20278;-75
2022/06/18 11:07:47;;;;;;;11.60;3.30;;;27.40;99.90;;;;;;5018748;28;20276;-76
2022/06/18 11:10:36;;;;;;;7.20;3.13;;;27.40;99.90;;;;;;5017699;28;20223;-76
2022/06/18 11:13:29;;;;;;;7.38;3.47;;;27.40;99.90;;;;;;5006436;28;20208;-77
2022/06/18 11:16:28;;;;;;;9.80;3.72;;;27.40;99.90;;;;;;5010852;28;20186;-76
2022/06/18 11:19:32;;;;;;;6.55;3.08;;;27.50;99.90;;;;;;5023905;28;20186;-76
2022/06/18 11:22:28;;;;;;;8.23;3.50;;;27.50;99.90;;;;;;5026187;28;20270;-76
2022/06/18 11:25:25;;;;;;;8.50;3.63;;;27.60;99.90;;;;;;5013950;28;20311;-76
2022/06/18 11:28:18;;;;;;;11.50;3.60;;;27.70;99.90;;;;;;5033479;28;20196;-76
2022/06/18 11:31:04;;;;;;;8.68;3.83;;;27.70;99.90;;;;;;5024876;28;20223;-76
2022/06/18 11:34:17;;;;;;;10.60;3.25;;;27.70;99.90;;;;;;5012259;28;20226;-75
2022/06/18 11:37:13;;;;;;;5.75;3.22;;;27.60;99.90;;;;;;5023800;28;20195;-76
2022/06/18 11:40:07;;;;;;;9.63;3.90;;;27.60;99.90;;;;;;5016677;28;20239;-76
2022/06/18 11:43:03;;;;;;;14.07;3.80;;;27.70;99.90;;;;;;5024415;28;20195;-75
2022/06/18 11:46:01;;;;;;;7.80;3.35;;;27.70;99.90;;;;;;5022213;28;20736;-75
2022/06/18 11:49:28;;;;;;;6.90;3.42;;;27.60;99.90;;;;;;5019336;28;20195;-76
2022/06/18 11:52:35;;;;;;;7.82;3.45;;;27.60;99.90;;;;;;5004999;28;20248;-75
2022/06/18 11:55:25;;;;;;;7.15;3.25;;;27.70;99.90;;;;;;5015347;28;20195;-76
2022/06/18 11:58:20;;;;;;;9.05;4.00;;;27.80;99.90;;;;;;5012094;28;20191;-76
2022/06/18 12:01:35;;;;;;;10.23;3.35;;;27.80;99.90;;;;;;5009306;28;20214;-75
2022/06/18 12:04:38;;;;;;;7.60;3.17;;;27.80;99.90;;;;;;5024799;28;20306;-76
2022/06/18 12:07:30;;;;;;;9.38;3.20;;;27.80;99.90;;;;;;5022829;28;20207;-75
2022/06/18 12:10:18;;;;;;;7.03;3.35;;;27.90;99.90;;;;;;5014056;28;20199;-76
2022/06/18 12:13:36;;;;;;;12.43;3.03;;;27.90;99.90;;;;;;5011255;28;20208;-76
2022/06/18 12:16:38;;;;;;;7.32;3.45;;;28.00;99.90;;;;;;5019045;28;20182;-76
2022/06/18 12:19:41;;;;;;;7.97;3.65;;;28.10;99.90;;;;;;5023869;28;20233;-76
2022/06/18 12:22:48;;;;;;;6.88;3.45;;;28.20;99.90;;;;;;5023351;28;20257;-78
2022/06/18 12:25:52;;;;;;;8.68;3.65;;;28.20;99.90;;;;;;5009486;28;20702;-80
2022/06/18 12:28:51;;;;;;;10.35;3.53;;;28.20;99.90;;;;;;5015309;28;20205;-80
2022/06/18 12:31:39;;;;;;;14.07;4.10;;;28.30;99.90;;;;;;5021731;28;20218;-79
2022/06/18 12:34:35;;;;;;;7.55;3.80;;;28.40;99.90;;;;;;5009903;28;20239;-80
2022/06/18 12:37:31;;;;;;;5.53;3.08;;;28.40;99.90;;;;;;5024659;28;20275;-79
2022/06/18 12:40:22;;;;;;;7.93;3.50;;;28.30;99.90;;;;;;5032594;28;20266;-79
2022/06/18 12:43:21;;;;;;;9.60;3.92;;;28.30;99.90;;;;;;5013844;28;20272;-79
2022/06/18 12:46:15;;;;;;;8.18;3.45;;;28.30;99.90;;;;;;5026773;28;20247;-79
2022/06/18 12:49:27;;;;;;;10.15;3.97;;;28.30;99.90;;;;;;5012970;28;20556;-80
2022/06/18 12:52:30;;;;;;;12.93;3.50;;;28.30;99.90;;;;;;5010273;28;20227;-80
2022/06/18 12:55:56;;;;;;;10.38;3.67;;;28.50;99.90;;;;;;5009798;28;20202;-80
2022/06/18 12:58:58;;;;;;;7.63;3.58;;;28.50;99.90;;;;;;5021136;28;20195;-79
2022/06/18 13:02:40;;;;;;;10.40;3.17;;;28.50;99.90;;;;;;5025276;28;20219;-79
2022/06/18 13:05:37;;;;;;;10.75;3.90;;;28.50;99.90;;;;;;4995489;28;20190;-79
2022/06/18 13:08:29;;;;;;;6.38;3.28;;;28.60;99.90;;;;;;5014295;28;20192;-79
2022/06/18 13:11:38;;;;;;;5.78;3.13;;;28.60;99.90;;;;;;5028801;28;20219;-79
2022/06/18 13:14:40;;;;;;;11.77;3.42;;;28.60;99.90;;;;;;5019997;28;20238;-80
2022/06/18 13:17:35;;;;;;;10.63;3.92;;;28.60;99.90;;;;;;5032734;28;20438;-80
2022/06/18 13:20:46;;;;;;;5.75;2.88;;;28.50;99.90;;;;;;5011311;28;20268;-79
2022/06/18 13:30:00;;;;;;;10.00;3.15;;;28.60;99.90;;;;;;5031623;28;20199;-80
2022/06/18 13:32:52;;;;;;;14.35;3.65;;;28.60;99.90;;;;;;5013943;28;20211;-80
2022/06/18 13:35:41;;;;;;;10.68;3.42;;;28.60;99.90;;;;;;5030807;28;20188;-80
2022/06/18 13:38:58;;;;;;;7.93;3.28;;;28.50;99.90;;;;;;5029412;28;20195;-80
2022/06/18 13:42:08;;;;;;;9.00;2.92;;;28.50;99.90;;;;;;4982412;28;20282;-80
2022/06/18 13:45:12;;;;;;;5.72;3.15;;;28.50;99.90;;;;;;5022348;28;20227;-80
2022/06/18 13:48:20;;;;;;;6.03;3.17;;;28.50;99.90;;;;;;5034998;28;20388;-80
2022/06/18 13:51:07;;;;;;;6.03;3.30;;;28.60;99.90;;;;;;5007840;28;20219;-79
2022/06/18 13:54:10;;;;;;;9.60;3.20;;;28.60;99.90;;;;;;5035002;28;20279;-79
2022/06/18 13:57:02;;;;;;;8.80;2.90;;;28.50;99.90;;;;;;5018832;28;20592;-79
2022/06/18 13:59:55;;;;;;;13.48;2.72;;;28.60;99.90;;;;;;5034840;28;20187;-79
2022/06/18 14:02:43;;;;;;;5.45;2.47;;;28.60;99.90;;;;;;5029179;28;20230;-79
2022/06/18 14:05:42;;;;;;;4.45;2.45;;;28.50;99.90;;;;;;5020566;28;20238;-79
2022/06/18 14:08:30;;;;;;;4.90;2.28;;;28.50;99.90;;;;;;5022171;28;20195;-79
2022/06/18 14:11:30;;;;;;;6.53;2.42;;;28.50;99.90;;;;;;5034607;28;20335;-80
2022/06/18 14:14:31;;;;;;;5.65;2.30;;;28.50;99.90;;;;;;5014995;28;20243;-80
2022/06/18 14:17:19;;;;;;;10.82;2.67;;;28.50;99.90;;;;;;5021160;28;20188;-79
2022/06/18 14:20:03;;;;;;;6.70;2.42;;;28.50;99.90;;;;;;5014569;28;20195;-80
2022/06/18 14:23:12;;;;;;;6.95;2.80;;;28.50;99.90;;;;;;5029379;28;20198;-79
2022/06/18 14:26:05;;;;;;;6.10;2.92;;;28.50;99.90;;;;;;5017463;28;20198;-79
2022/06/18 14:28:49;;;;;;;5.03;1.90;;;28.50;99.90;;;;;;5016796;28;20238;-79
2022/06/18 14:31:39;;;;;;;5.45;2.30;;;28.50;99.90;;;;;;5030055;28;20231;-78
2022/06/18 14:34:44;;;;;;;7.55;2.25;;;28.50;99.90;;;;;;5030857;28;20437;-78
2022/06/18 14:37:40;;;;;;;7.82;2.30;;;28.40;99.90;;;;;;5010013;28;20281;-78
2022/06/18 14:41:34;;;;;;;5.95;2.45;;;28.40;99.90;;;;;;5031839;28;20206;-78
2022/06/18 14:44:12;;;;;;;5.30;2.22;;;28.30;99.90;;;;;;5029137;28;20258;-78
2022/06/18 14:47:19;;;;;;;8.52;2.63;;;28.30;99.90;;;;;;5032631;28;20271;-78
2022/06/18 14:50:29;;;;;;;5.03;2.33;;;28.20;99.90;;;;;;5018783;28;20283;-78
2022/06/18 14:53:44;;;;;;;9.68;2.60;;;28.20;99.90;;;;;;5015748;28;20195;-77
2022/06/18 14:56:38;;;;;;;7.13;2.10;;;28.20;99.90;;;;;;5021653;28;20211;-78
2022/06/18 14:59:55;;;;;;;5.03;2.13;;;28.20;99.90;;;;;;5016957;28;20703;-78
2022/06/18 15:02:50;;;;;;;7.90;2.47;;;28.20;99.90;;;;;;5026843;28;20207;-78
2022/06/18 15:05:38;;;;;;;5.13;2.17;;;28.00;99.90;;;;;;5022030;28;20196;-78
2022/06/18 15:08:23;;;;;;;4.75;1.73;;;27.90;99.90;;;;;;5012967;28;20199;-78